Terminal Aerodrome Forecast
Issued by NWS Memphis, TN

Home | Current Version | Previous Version | Text Only | Print | Product List | Glossary On
Versions: 1 2 3 4 5 6 7 8 9 10 11 12 13
000
FTUS44 KMEG 180500
TAFJBR
TAF
KJBR 180530Z 1806/1906 VRB03KT P6SM OVC035
     FM180700 VRB03KT P6SM VCTS OVC025CB
     FM181200 06006KT P6SM BKN040
     FM190000 04004KT P6SM BKN040=

USA.gov is the U.S. government's official web portal to all federal, state and local government web resources and services.